createdAt,value
2019-05-10T00:00:21.331Z,10.45
2019-05-10T00:03:06.977Z,10.37
2019-05-10T00:05:52.508Z,10.38
2019-05-10T00:08:37.966Z,10.38
2019-05-10T00:11:34.273Z,10.38
2019-05-10T00:14:23.680Z,10.37
2019-05-10T00:16:52.952Z,10.39
2019-05-10T00:19:19.899Z,10.41
2019-05-10T00:21:54.409Z,10.43
2019-05-10T00:24:21.486Z,10.43
2019-05-10T00:26:48.640Z,10.46
2019-05-10T00:29:15.596Z,10.46
2019-05-10T00:31:42.557Z,10.48
2019-05-10T00:34:09.540Z,10.47
2019-05-10T00:36:36.476Z,10.45
2019-05-10T00:39:05.169Z,10.53
2019-05-10T00:41:32.157Z,10.58
2019-05-10T00:43:59.210Z,10.59
2019-05-10T00:46:26.157Z,10.61
2019-05-10T00:48:55.215Z,10.58
2019-05-10T00:51:22.160Z,10.59
2019-05-10T00:53:49.099Z,10.55
2019-05-10T00:56:16.087Z,10.55
2019-05-10T00:58:43.043Z,10.58
2019-05-10T01:01:10.114Z,10.62
2019-05-10T01:03:37.089Z,10.63
2019-05-10T01:06:04.084Z,10.62
2019-05-10T01:08:31.051Z,10.58
2019-05-10T01:10:58.023Z,10.60
2019-05-10T01:13:24.997Z,10.57
2019-05-10T01:15:51.948Z,10.55
2019-05-10T01:18:18.886Z,10.56
2019-05-10T01:20:45.885Z,10.53
2019-05-10T01:23:14.639Z,10.50
2019-05-10T01:25:42.994Z,10.46
2019-05-10T01:28:10.044Z,10.40
2019-05-10T01:30:37.128Z,10.38
2019-05-10T01:33:04.074Z,10.43
2019-05-10T01:35:31.071Z,10.48
2019-05-10T01:37:58.008Z,10.47
2019-05-10T01:40:40.108Z,10.51
2019-05-10T01:43:07.050Z,10.51
2019-05-10T01:45:34.021Z,10.56
2019-05-10T01:48:02.763Z,10.56
2019-05-10T01:50:29.721Z,10.60
2019-05-10T01:52:56.699Z,10.61
2019-05-10T01:55:51.647Z,10.66
2019-05-10T01:58:12.104Z,10.63
2019-05-10T02:00:39.046Z,10.65
2019-05-10T02:03:05.987Z,10.68
2019-05-10T02:05:33.080Z,10.70
2019-05-10T02:08:00.122Z,10.71
2019-05-10T02:10:27.342Z,10.75
2019-05-10T02:12:54.361Z,10.75
2019-05-10T02:15:21.500Z,10.76
2019-05-10T02:17:48.449Z,10.77
2019-05-10T02:20:15.823Z,10.81
2019-05-10T02:22:42.779Z,10.74
2019-05-10T02:25:10.119Z,10.72
2019-05-10T02:27:37.129Z,10.66
2019-05-10T02:30:05.146Z,10.58
2019-05-10T02:32:32.288Z,10.60
2019-05-10T02:34:59.635Z,10.65
2019-05-10T02:37:26.817Z,10.58
2019-05-10T02:39:53.777Z,10.51
2019-05-10T02:42:20.753Z,10.46
2019-05-10T02:44:47.697Z,10.33
2019-05-10T02:47:14.766Z,10.30
2019-05-10T02:49:41.755Z,10.20
2019-05-10T02:52:08.726Z,10.09
2019-05-10T02:54:35.684Z,10.05
2019-05-10T02:57:02.779Z,9.99
2019-05-10T02:59:32.491Z,9.95
2019-05-10T03:02:03.424Z,9.97
2019-05-10T03:04:34.216Z,9.89
2019-05-10T03:07:02.190Z,9.89
2019-05-10T03:09:32.244Z,9.87
2019-05-10T03:12:24.263Z,9.82
2019-05-10T03:14:56.372Z,9.81
2019-05-10T03:17:24.469Z,9.81
2019-05-10T03:19:52.559Z,9.77
2019-05-10T03:22:20.177Z,9.76
2019-05-10T03:24:47.179Z,9.78
2019-05-10T03:27:14.174Z,9.78
2019-05-10T03:29:41.176Z,9.79
2019-05-10T03:32:08.250Z,9.80
2019-05-10T03:34:47.589Z,9.79
2019-05-10T03:37:14.533Z,9.77
2019-05-10T03:39:41.500Z,9.78
2019-05-10T03:42:08.464Z,9.80
2019-05-10T03:44:35.449Z,9.79
2019-05-10T03:47:02.425Z,9.81
2019-05-10T03:49:29.365Z,9.81
2019-05-10T03:51:56.310Z,9.82
2019-05-10T03:54:23.326Z,9.79
2019-05-10T03:57:09.225Z,9.79
2019-05-10T03:59:19.172Z,9.80
2019-05-10T04:01:46.126Z,9.81
2019-05-10T04:04:37.270Z,9.81
2019-05-10T04:07:04.220Z,9.83
2019-05-10T04:09:31.211Z,9.83
2019-05-10T04:11:58.453Z,9.84
2019-05-10T04:14:25.390Z,9.86
2019-05-10T04:16:52.354Z,9.88
2019-05-10T04:19:19.444Z,9.88
2019-05-10T04:21:46.393Z,9.90
2019-05-10T04:24:13.394Z,9.91
2019-05-10T04:26:40.369Z,9.91
2019-05-10T04:29:07.479Z,9.93
2019-05-10T04:31:34.444Z,9.97
2019-05-10T04:34:01.541Z,9.97
2019-05-10T04:36:28.617Z,9.97
2019-05-10T04:38:55.574Z,9.99
2019-05-10T04:41:22.654Z,10.00
2019-05-10T04:43:49.605Z,10.01
2019-05-10T04:46:16.550Z,10.04
2019-05-10T04:48:43.560Z,10.04
2019-05-10T04:51:11.731Z,10.06
2019-05-10T04:53:38.701Z,10.04
2019-05-10T04:56:06.896Z,10.05
2019-05-10T04:58:33.844Z,10.07
2019-05-10T05:01:00.805Z,10.07
2019-05-10T05:03:52.209Z,10.12
2019-05-10T05:06:19.140Z,10.15
2019-05-10T05:09:11.767Z,10.19
2019-05-10T05:11:38.759Z,10.20
2019-05-10T05:14:09.297Z,10.21
2019-05-10T05:16:34.896Z,10.20
2019-05-10T05:19:01.842Z,10.21
2019-05-10T05:21:28.895Z,10.17
2019-05-10T05:23:55.890Z,10.19
2019-05-10T05:26:22.942Z,10.15
2019-05-10T05:28:50.005Z,10.15
2019-05-10T05:31:17.001Z,10.16
2019-05-10T05:33:45.012Z,10.21
2019-05-10T05:36:11.975Z,10.23
2019-05-10T05:38:40.591Z,10.26
2019-05-10T05:41:08.103Z,10.28
2019-05-10T05:43:35.012Z,10.28
2019-05-10T05:46:02.046Z,10.29
2019-05-10T05:48:39.810Z,10.29
2019-05-10T05:51:01.876Z,10.31
2019-05-10T05:53:28.920Z,10.28
2019-05-10T05:55:55.952Z,10.29
2019-05-10T05:58:27.222Z,10.32
2019-05-10T06:00:51.810Z,10.36
2019-05-10T06:03:27.757Z,10.36
2019-05-10T06:05:47.672Z,10.39
2019-05-10T06:08:22.734Z,10.37
2019-05-10T06:10:44.133Z,10.39
2019-05-10T06:13:11.297Z,10.42
2019-05-10T06:15:41.291Z,10.43
2019-05-10T06:18:09.552Z,10.46
2019-05-10T06:20:42.170Z,10.53
2019-05-10T06:23:07.272Z,10.56
2019-05-10T06:25:42.476Z,10.57
2019-05-10T06:28:25.751Z,10.64
2019-05-10T06:30:39.868Z,10.67
2019-05-10T06:33:12.770Z,10.69
2019-05-10T06:35:35.733Z,10.67
2019-05-10T06:38:02.697Z,10.63
2019-05-10T06:40:35.759Z,10.68
2019-05-10T06:43:13.610Z,10.74
2019-05-10T06:45:37.323Z,10.83
2019-05-10T06:48:04.256Z,11.05
2019-05-10T06:50:31.903Z,11.17
2019-05-10T06:53:00.562Z,11.28
2019-05-10T06:55:27.913Z,11.43
2019-05-10T06:57:59.166Z,11.53
2019-05-10T07:00:23.874Z,11.72
2019-05-10T07:02:51.087Z,11.87
2019-05-10T07:05:23.946Z,11.79
2019-05-10T07:08:13.867Z,11.79
2019-05-10T07:11:09.537Z,11.87
2019-05-10T07:13:40.455Z,11.77
2019-05-10T07:16:05.685Z,11.78
2019-05-10T07:18:32.681Z,11.79
2019-05-10T07:21:08.728Z,11.80
2019-05-10T07:23:38.988Z,11.87
2019-05-10T07:26:04.978Z,11.97
2019-05-10T07:28:31.912Z,12.20
2019-05-10T07:30:58.914Z,12.34
2019-05-10T07:33:25.852Z,12.44
2019-05-10T07:35:52.897Z,12.52
2019-05-10T07:38:31.023Z,12.46
2019-05-10T07:40:56.392Z,12.45
2019-05-10T07:43:26.403Z,12.45
2019-05-10T07:45:52.390Z,12.37
2019-05-10T07:49:29.478Z,12.15
2019-05-10T07:51:52.572Z,12.08
2019-05-10T07:54:19.517Z,12.01
2019-05-10T07:56:48.341Z,11.90
2019-05-10T07:59:19.558Z,11.87
2019-05-10T08:01:48.640Z,11.93
2019-05-10T08:04:19.850Z,11.99
2019-05-10T08:06:47.518Z,12.21
2019-05-10T08:09:11.541Z,12.39
2019-05-10T08:11:59.533Z,12.55
2019-05-10T08:14:25.268Z,12.68
2019-05-10T08:16:58.303Z,12.64
2019-05-10T08:19:20.520Z,12.56
2019-05-10T08:21:54.863Z,12.57
2019-05-10T08:24:17.596Z,12.70
2019-05-10T08:26:44.573Z,12.90
2019-05-10T08:29:13.445Z,13.12
2019-05-10T08:32:00.004Z,13.25
2019-05-10T08:34:28.913Z,13.23
2019-05-10T08:36:55.815Z,13.27
2019-05-10T08:39:22.766Z,13.37
2019-05-10T08:42:01.301Z,13.44
2019-05-10T08:44:21.036Z,13.43
2019-05-10T08:46:47.604Z,13.49
2019-05-10T08:49:14.549Z,13.54
2019-05-10T08:51:47.753Z,13.61
2019-05-10T08:54:12.269Z,13.62
2019-05-10T08:56:39.256Z,13.65
2019-05-10T08:59:09.482Z,13.70
2019-05-10T09:01:44.427Z,13.86
2019-05-10T09:04:06.814Z,14.07
2019-05-10T09:06:33.261Z,14.21
2019-05-10T09:09:03.191Z,14.14
2019-05-10T09:11:32.764Z,14.09
2019-05-10T09:14:00.063Z,13.98
2019-05-10T09:16:29.261Z,13.95
2019-05-10T09:19:06.001Z,13.75
2019-05-10T09:21:33.233Z,13.62
2019-05-10T09:24:06.130Z,13.66
2019-05-10T09:26:32.187Z,13.71
2019-05-10T09:29:01.502Z,13.90
2019-05-10T09:31:32.919Z,14.09
2019-05-10T09:34:01.960Z,14.10
2019-05-10T09:36:31.040Z,14.27
2019-05-10T09:38:57.727Z,14.26
2019-05-10T09:41:27.625Z,14.07
2019-05-10T09:43:53.921Z,14.04
2019-05-10T09:46:22.902Z,13.85
2019-05-10T09:48:54.741Z,13.77
2019-05-10T09:51:24.163Z,13.56
2019-05-10T09:53:48.587Z,13.54
2019-05-10T09:56:17.303Z,13.41
2019-05-10T09:58:48.645Z,13.50
2019-05-10T10:01:21.148Z,13.68
2019-05-10T10:03:45.034Z,13.95
2019-05-10T10:06:12.104Z,14.20
2019-05-10T10:08:43.329Z,14.35
2019-05-10T10:11:15.043Z,14.48
2019-05-10T10:13:43.275Z,14.51
2019-05-10T10:16:12.601Z,14.35
2019-05-10T10:18:36.930Z,14.19
2019-05-10T10:21:03.593Z,14.04
2019-05-10T10:23:34.569Z,13.87
2019-05-10T10:25:59.631Z,13.77
2019-05-10T10:28:28.649Z,13.74
2019-05-10T10:31:03.039Z,13.71
2019-05-10T10:33:28.840Z,13.61
2019-05-10T10:36:01.657Z,13.56
2019-05-10T10:38:23.183Z,13.48
2019-05-10T10:40:50.140Z,13.39
2019-05-10T10:43:17.985Z,13.33
2019-05-10T10:45:45.086Z,13.28
2019-05-10T10:48:13.056Z,13.27
2019-05-10T10:50:44.143Z,13.29
2019-05-10T10:53:10.913Z,13.20
2019-05-10T10:55:40.291Z,12.76
2019-05-10T10:58:07.531Z,12.55
2019-05-10T11:00:48.177Z,12.44
2019-05-10T11:03:16.548Z,12.41
2019-05-10T11:05:43.499Z,12.39
2019-05-10T11:08:17.754Z,12.35
2019-05-10T11:10:44.756Z,12.31
2019-05-10T11:13:18.764Z,12.17
2019-05-10T11:15:42.024Z,12.09
2019-05-10T11:18:09.306Z,12.04
2019-05-10T11:20:36.259Z,12.07
2019-05-10T11:23:03.355Z,12.03
2019-05-10T11:25:30.414Z,12.08
2019-05-10T11:28:01.983Z,12.19
2019-05-10T11:30:29.067Z,12.38
2019-05-10T11:32:56.023Z,12.56
2019-05-10T11:35:28.542Z,12.66
2019-05-10T11:37:52.109Z,12.79
2019-05-10T11:40:30.315Z,12.93
2019-05-10T11:42:51.049Z,13.20
2019-05-10T11:45:20.878Z,13.55
2019-05-10T11:47:54.459Z,14.01
2019-05-10T11:50:28.741Z,14.35
2019-05-10T11:52:46.813Z,14.56
2019-05-10T11:55:13.869Z,14.67
2019-05-10T11:57:44.115Z,14.72
2019-05-10T12:00:24.671Z,14.90
2019-05-10T12:03:01.072Z,15.52
2019-05-10T12:05:16.664Z,15.70
2019-05-10T12:07:45.456Z,15.77
2019-05-10T12:10:16.792Z,16.05
2019-05-10T12:12:50.091Z,16.20
2019-05-10T12:15:04.733Z,16.16
2019-05-10T12:17:31.668Z,15.99
2019-05-10T12:19:58.648Z,16.09
2019-05-10T12:22:32.142Z,16.21
2019-05-10T12:25:19.739Z,15.95
2019-05-10T12:27:29.384Z,16.00
2019-05-10T12:29:59.578Z,16.07
2019-05-10T12:32:26.971Z,16.22
2019-05-10T12:34:56.319Z,16.49
2019-05-10T12:37:26.258Z,16.52
2019-05-10T12:39:53.379Z,16.33
2019-05-10T12:42:23.383Z,16.20
2019-05-10T12:44:51.615Z,15.97
2019-05-10T12:47:21.449Z,15.89
2019-05-10T12:49:48.215Z,15.98
2019-05-10T12:52:16.220Z,15.70
2019-05-10T12:54:43.379Z,15.53
2019-05-10T12:57:10.369Z,15.17
2019-05-10T12:59:57.305Z,14.71
2019-05-10T13:02:24.292Z,14.45
2019-05-10T13:04:52.669Z,14.23
2019-05-10T13:07:19.979Z,14.12
2019-05-10T13:09:49.891Z,14.13
2019-05-10T13:12:15.828Z,14.02
2019-05-10T13:14:46.118Z,13.95
2019-05-10T13:17:12.398Z,14.09
2019-05-10T13:19:40.654Z,15.18
2019-05-10T13:22:07.741Z,16.13
2019-05-10T13:24:34.693Z,16.68
2019-05-10T13:27:03.599Z,17.56
2019-05-10T13:29:30.652Z,17.81
2019-05-10T13:31:57.609Z,18.03
2019-05-10T13:34:24.649Z,17.63
2019-05-10T13:36:51.551Z,16.96
2019-05-10T13:39:19.035Z,16.53
2019-05-10T13:41:48.712Z,16.52
2019-05-10T13:44:15.851Z,16.93
2019-05-10T13:46:42.830Z,17.28
2019-05-10T13:49:09.816Z,17.12
2019-05-10T13:51:36.800Z,16.85
2019-05-10T13:54:05.241Z,16.54
2019-05-10T13:56:32.502Z,16.25
2019-05-10T13:59:13.975Z,16.40
2019-05-10T14:01:28.498Z,16.86
2019-05-10T14:04:04.881Z,17.17
2019-05-10T14:06:35.083Z,18.01
2019-05-10T14:09:05.378Z,18.75
2019-05-10T14:11:33.945Z,18.93
2019-05-10T14:14:01.239Z,19.00
2019-05-10T14:16:28.222Z,18.90
2019-05-10T14:18:55.182Z,18.82
2019-05-10T14:21:22.134Z,18.80
2019-05-10T14:23:49.136Z,18.67
2019-05-10T14:26:18.197Z,18.59
2019-05-10T14:28:47.398Z,18.50
2019-05-10T14:31:15.736Z,17.84
2019-05-10T14:33:49.655Z,17.13
2019-05-10T14:36:11.624Z,16.52
2019-05-10T14:38:38.659Z,16.18
2019-05-10T14:41:10.835Z,15.87
2019-05-10T14:43:35.608Z,15.77
2019-05-10T14:46:02.777Z,15.72
2019-05-10T14:48:35.392Z,15.54
2019-05-10T14:51:10.569Z,15.42
2019-05-10T14:53:30.688Z,15.23
2019-05-10T14:55:57.675Z,15.11
2019-05-10T14:58:24.633Z,15.04
2019-05-10T15:01:48.983Z,14.91
2019-05-10T15:04:47.187Z,14.83
2019-05-10T15:07:00.247Z,14.62
2019-05-10T15:09:30.340Z,14.50
2019-05-10T15:11:57.319Z,13.91
2019-05-10T15:14:24.318Z,11.99
2019-05-10T15:16:51.308Z,10.85
2019-05-10T15:19:31.535Z,10.48
2019-05-10T15:21:58.869Z,10.25
2019-05-10T15:24:26.214Z,10.28
2019-05-10T15:26:53.300Z,10.44
2019-05-10T15:29:22.519Z,10.67
2019-05-10T15:31:49.300Z,10.86
2019-05-10T15:34:16.303Z,11.12
2019-05-10T15:36:43.286Z,11.23
2019-05-10T15:39:10.243Z,11.27
2019-05-10T15:41:37.229Z,11.36
2019-05-10T15:44:04.205Z,11.44
2019-05-10T15:46:38.665Z,11.51
2019-05-10T15:49:00.204Z,11.59
2019-05-10T15:51:35.719Z,11.67
2019-05-10T15:54:03.678Z,11.73
2019-05-10T15:56:25.118Z,11.69
2019-05-10T15:58:52.091Z,11.76
2019-05-10T16:01:26.212Z,11.80
2019-05-10T16:04:34.667Z,11.84
2019-05-10T16:07:01.651Z,11.89
2019-05-10T16:09:28.649Z,12.01
2019-05-10T16:12:01.791Z,12.02
2019-05-10T16:14:33.138Z,12.10
2019-05-10T16:16:57.935Z,12.20
2019-05-10T16:19:25.086Z,12.35
2019-05-10T16:21:54.319Z,12.48
2019-05-10T16:24:26.098Z,12.67
2019-05-10T16:26:54.513Z,13.07
2019-05-10T16:29:18.760Z,13.37
2019-05-10T16:31:45.908Z,13.62
2019-05-10T16:34:12.920Z,13.80
2019-05-10T16:36:42.283Z,13.92
2019-05-10T16:39:09.302Z,13.83
2019-05-10T16:41:36.246Z,13.90
2019-05-10T16:44:03.209Z,13.96
2019-05-10T16:46:30.240Z,13.90
2019-05-10T16:48:57.208Z,14.08
2019-05-10T16:51:26.031Z,13.87
2019-05-10T16:53:53.031Z,13.70
2019-05-10T16:56:21.267Z,13.71
2019-05-10T16:58:53.115Z,13.79
2019-05-10T17:01:18.564Z,13.90
2019-05-10T17:03:51.092Z,13.95
2019-05-10T17:06:15.178Z,13.92
2019-05-10T17:08:42.191Z,13.87
2019-05-10T17:11:10.392Z,13.86
2019-05-10T17:13:41.617Z,13.96
2019-05-10T17:16:11.616Z,14.04
2019-05-10T17:18:36.219Z,14.08
2019-05-10T17:21:03.228Z,13.98
2019-05-10T17:23:30.571Z,13.98
2019-05-10T17:26:04.929Z,13.92
2019-05-10T17:28:47.345Z,13.89
2019-05-10T17:31:24.826Z,13.88
2019-05-10T17:33:51.831Z,13.77
2019-05-10T17:36:19.910Z,13.49
2019-05-10T17:38:53.714Z,13.21
2019-05-10T17:41:19.348Z,12.98
2019-05-10T17:43:45.610Z,12.83
2019-05-10T17:46:18.515Z,12.73
2019-05-10T17:48:47.301Z,12.70
2019-05-10T17:51:11.628Z,12.62
2019-05-10T17:53:38.577Z,12.55
2019-05-10T17:56:05.883Z,12.45
2019-05-10T17:58:33.710Z,12.43
2019-05-10T18:01:01.787Z,12.38
2019-05-10T18:03:28.816Z,12.34
2019-05-10T18:05:55.796Z,12.31
2019-05-10T18:08:22.768Z,12.28
2019-05-10T18:10:49.901Z,12.24
2019-05-10T18:13:16.913Z,12.20
2019-05-10T18:15:44.440Z,12.17
2019-05-10T18:18:11.593Z,12.15
2019-05-10T18:20:41.972Z,12.11
2019-05-10T18:23:07.492Z,12.07
2019-05-10T18:25:34.543Z,12.03
2019-05-10T18:28:01.590Z,12.00
2019-05-10T18:30:30.607Z,11.95
2019-05-10T18:32:57.618Z,11.89
2019-05-10T18:35:25.687Z,11.86
2019-05-10T18:37:59.575Z,11.79
2019-05-10T18:40:31.590Z,11.72
2019-05-10T18:43:03.853Z,11.68
2019-05-10T18:45:30.127Z,11.62
2019-05-10T18:47:59.549Z,11.53
2019-05-10T18:50:29.155Z,11.47
2019-05-10T18:52:57.908Z,11.39
2019-05-10T18:55:24.962Z,11.31
2019-05-10T18:57:52.622Z,11.26
2019-05-10T19:00:25.136Z,11.17
2019-05-10T19:02:55.433Z,11.10
2019-05-10T19:05:25.343Z,11.04
2019-05-10T19:08:02.747Z,10.98
2019-05-10T19:12:40.884Z,11.05
2019-05-10T19:15:14.752Z,10.91
2019-05-10T19:17:40.453Z,10.84
2019-05-10T19:20:09.533Z,10.81
2019-05-10T19:22:41.241Z,10.77
2019-05-10T19:25:11.532Z,10.72
2019-05-10T19:27:38.904Z,10.69
2019-05-10T19:30:04.736Z,10.65
2019-05-10T19:32:39.477Z,10.60
2019-05-10T19:35:06.853Z,10.53
2019-05-10T19:37:34.879Z,10.45
2019-05-10T19:40:05.816Z,10.41
2019-05-10T19:42:37.394Z,10.35
2019-05-10T19:45:04.582Z,10.33
2019-05-10T19:47:37.110Z,10.34
2019-05-10T19:50:05.897Z,10.34
2019-05-10T19:52:32.912Z,10.32
2019-05-10T19:54:59.927Z,10.32
2019-05-10T19:57:26.967Z,10.34
2019-05-10T19:59:53.939Z,10.33
2019-05-10T20:02:20.919Z,10.33
2019-05-10T20:04:47.961Z,10.31
2019-05-10T20:07:14.989Z,10.31
2019-05-10T20:09:42.044Z,10.31
2019-05-10T20:12:09.076Z,10.33
2019-05-10T20:14:37.282Z,10.35
2019-05-10T20:17:04.342Z,10.37
2019-05-10T20:19:31.427Z,10.36
2019-05-10T20:21:59.328Z,10.37
2019-05-10T20:24:26.350Z,10.36
2019-05-10T20:26:53.554Z,10.37
2019-05-10T20:29:20.878Z,10.37
2019-05-10T20:31:47.963Z,10.35
2019-05-10T20:34:15.101Z,10.32
2019-05-10T20:36:42.208Z,10.29
2019-05-10T20:39:10.019Z,10.24
2019-05-10T20:41:36.972Z,10.23
2019-05-10T20:44:04.185Z,10.18
2019-05-10T20:46:31.219Z,10.17
2019-05-10T20:48:58.454Z,10.16
2019-05-10T20:51:25.470Z,10.13
2019-05-10T20:53:52.716Z,10.09
2019-05-10T20:56:19.749Z,10.07
2019-05-10T20:58:46.924Z,10.04
2019-05-10T21:01:14.042Z,9.98
2019-05-10T21:03:41.137Z,9.91
2019-05-10T21:06:08.183Z,9.86
2019-05-10T21:08:35.220Z,9.81
2019-05-10T21:11:02.261Z,9.77
2019-05-10T21:13:29.353Z,9.73
2019-05-10T21:15:56.331Z,9.72
2019-05-10T21:18:23.320Z,9.68
2019-05-10T21:20:50.536Z,9.66
2019-05-10T21:23:17.540Z,9.66
2019-05-10T21:25:44.617Z,9.66
2019-05-10T21:28:11.723Z,9.65
2019-05-10T21:30:38.831Z,9.62
2019-05-10T21:33:06.012Z,9.58
2019-05-10T21:35:33.134Z,9.57
2019-05-10T21:38:00.209Z,9.58
2019-05-10T21:40:27.421Z,9.62
2019-05-10T21:42:56.199Z,9.63
2019-05-10T21:45:23.154Z,9.65
2019-05-10T21:47:51.927Z,9.65
2019-05-10T21:50:19.225Z,9.66
2019-05-10T21:52:46.179Z,9.63
2019-05-10T21:55:13.164Z,9.59
2019-05-10T21:57:40.131Z,9.59
2019-05-10T22:00:08.417Z,9.60
2019-05-10T22:02:35.411Z,9.66
2019-05-10T22:05:02.491Z,9.68
2019-05-10T22:07:29.499Z,9.72
2019-05-10T22:09:59.413Z,9.71
2019-05-10T22:12:26.440Z,9.73
2019-05-10T22:14:53.451Z,9.73
2019-05-10T22:17:26.385Z,9.73
2019-05-10T22:20:14.083Z,9.70
2019-05-10T22:22:41.060Z,9.67
2019-05-10T22:25:08.145Z,9.62
2019-05-10T22:27:35.194Z,9.61
2019-05-10T22:30:02.257Z,9.59
2019-05-10T22:32:29.207Z,9.57
2019-05-10T22:34:56.340Z,9.56
2019-05-10T22:37:47.481Z,9.55
2019-05-10T22:40:14.638Z,9.52
2019-05-10T22:42:41.708Z,9.51
2019-05-10T22:45:08.870Z,9.51
2019-05-10T22:47:35.850Z,9.48
2019-05-10T22:50:02.961Z,9.47
2019-05-10T22:52:29.940Z,9.44
2019-05-10T22:55:00.309Z,9.43
2019-05-10T22:57:25.973Z,9.43
2019-05-10T22:59:52.929Z,9.45
2019-05-10T23:02:19.944Z,9.45
2019-05-10T23:04:46.909Z,9.44
2019-05-10T23:07:13.961Z,9.41
2019-05-10T23:09:42.761Z,9.39
2019-05-10T23:12:09.771Z,9.39
2019-05-10T23:14:36.915Z,9.38
2019-05-10T23:17:03.941Z,9.38
2019-05-10T23:19:30.921Z,9.39
2019-05-10T23:21:57.903Z,9.39
2019-05-10T23:24:38.615Z,9.39
2019-05-10T23:27:06.219Z,9.39
2019-05-10T23:29:33.374Z,9.39
2019-05-10T23:32:00.368Z,9.41
2019-05-10T23:34:27.439Z,9.43
2019-05-10T23:36:54.428Z,9.46
2019-05-10T23:39:38.439Z,9.45
2019-05-10T23:41:52.343Z,9.48
2019-05-10T23:44:19.383Z,9.48
2019-05-10T23:46:46.338Z,9.50
2019-05-10T23:49:13.313Z,9.50
2019-05-10T23:52:18.220Z,9.50
2019-05-10T23:54:45.292Z,9.51
2019-05-10T23:57:12.278Z,9.52
2019-05-10T23:59:39.411Z,9.54
